Time;durP1;ratioP1;P1;durP2;ratioP2;P2;SDS_P1;SDS_P2;PMS_P1;PMS_P2;Temp;Humidity;BMP_temperature;BMP_pressure;BME280_temperature;BME280_humidity;BME280_pressure;Samples;Min_cycle;Max_cycle;Signal;HPM_P1;HPM_P2
2023/08/29 00:00:26;;;;;;;11.30;4.38;;;;;;;13.83;100.00;101361.53;5029962;28;20026;-61
2023/08/29 00:02:53;;;;;;;5.20;4.38;;;;;;;13.82;100.00;101357.13;5029696;28;20709;-61
2023/08/29 00:05:19;;;;;;;9.40;4.38;;;;;;;13.79;100.00;101357.28;5036934;28;20060;-61
2023/08/29 00:07:44;;;;;;;6.10;4.03;;;;;;;13.76;100.00;101358.22;5049637;28;20052;-61
2023/08/29 00:10:10;;;;;;;9.05;4.82;;;;;;;13.75;100.00;101363.59;5049482;28;20079;-61
2023/08/29 00:12:35;;;;;;;5.10;4.63;;;;;;;13.71;100.00;101362.00;5049382;28;20032;-59
2023/08/29 00:15:03;;;;;;;5.35;4.38;;;;;;;13.69;100.00;101348.81;5050074;28;20021;-62
2023/08/29 00:17:28;;;;;;;5.07;3.90;;;;;;;13.69;100.00;101350.63;5048427;28;20029;-62
2023/08/29 00:19:54;;;;;;;8.10;4.40;;;;;;;13.67;100.00;101347.16;5049433;28;20474;-60
2023/08/29 00:22:20;;;;;;;7.20;4.15;;;;;;;13.65;100.00;101349.84;5050164;28;20021;-61
2023/08/29 00:24:46;;;;;;;4.97;4.00;;;;;;;13.64;100.00;101350.78;5049990;28;20036;-61
2023/08/29 00:27:11;;;;;;;6.05;4.22;;;;;;;13.64;100.00;101350.78;5050206;28;20017;-60
2023/08/29 00:29:37;;;;;;;4.95;4.45;;;;;;;13.68;100.00;101343.56;5049363;28;20021;-60
2023/08/29 00:32:02;;;;;;;6.20;4.15;;;;;;;13.66;100.00;101345.44;5048570;28;20017;-60
2023/08/29 00:34:28;;;;;;;6.75;4.40;;;;;;;13.66;100.00;101348.09;5048552;28;20033;-60
2023/08/29 00:36:53;;;;;;;6.65;4.82;;;;;;;13.62;100.00;101345.56;5047755;28;20047;-62
2023/08/29 00:39:19;;;;;;;7.00;4.55;;;;;;;13.60;100.00;101341.22;5048700;28;20101;-61
2023/08/29 00:41:48;;;;;;;6.05;4.82;;;;;;;13.54;100.00;101342.31;5048259;28;20104;-61
2023/08/29 00:44:13;;;;;;;7.07;4.80;;;;;;;13.51;100.00;101338.00;5041718;28;20033;-62
2023/08/29 00:46:39;;;;;;;6.00;4.38;;;;;;;13.49;100.00;101333.69;5028455;28;20476;-61
2023/08/29 00:49:04;;;;;;;6.88;5.40;;;;;;;13.48;100.00;101334.56;5027422;28;20041;-60
2023/08/29 00:51:30;;;;;;;7.82;4.82;;;;;;;13.48;100.00;101329.28;5028748;28;20026;-60
2023/08/29 00:53:55;;;;;;;8.32;5.40;;;;;;;13.48;100.00;101326.63;5027725;28;20511;-61
2023/08/29 00:56:21;;;;;;;9.23;5.70;;;;;;;13.49;100.00;101323.09;5028699;28;20104;-62
2023/08/29 00:58:46;;;;;;;9.85;5.50;;;;;;;13.48;100.00;101338.09;5027934;28;20033;-61
2023/08/29 01:01:12;;;;;;;7.57;5.22;;;;;;;13.42;100.00;101325.09;5028174;28;20758;-60
2023/08/29 01:03:39;;;;;;;10.63;5.13;;;;;;;13.38;100.00;101328.78;5027988;28;20067;-61
2023/08/29 01:06:04;;;;;;;6.38;5.05;;;;;;;13.37;100.00;101330.56;5028911;28;20246;-62
2023/08/29 01:08:29;;;;;;;8.13;4.95;;;;;;;13.36;100.00;101326.19;5026780;28;20085;-56
2023/08/29 01:11:12;;;;;;;9.38;5.43;;;;;;;13.40;100.00;101326.94;5028453;28;20120;-60
2023/08/29 01:13:50;;;;;;;11.93;5.95;;;;;;;13.42;100.00;101330.38;5026629;28;20036;-60
2023/08/29 01:16:17;;;;;;;7.63;5.47;;;;;;;13.45;100.00;101324.13;5027220;28;20041;-61
2023/08/29 01:18:44;;;;;;;10.52;5.57;;;;;;;13.40;100.00;101330.44;5037685;28;20468;-63
2023/08/29 01:21:31;;;;;;;7.97;5.07;;;;;;;13.34;100.00;101322.72;5048424;28;20057;-62
2023/08/29 01:24:10;;;;;;;7.88;5.38;;;;;;;13.27;100.00;101315.94;5047232;28;20044;-61
2023/08/29 01:26:36;;;;;;;6.32;5.00;;;;;;;13.22;100.00;101315.28;5046848;28;20558;-60
2023/08/29 01:29:02;;;;;;;6.20;5.35;;;;;;;13.18;100.00;101318.97;5047362;28;20414;-59
2023/08/29 01:31:29;;;;;;;10.40;5.32;;;;;;;13.17;100.00;101309.28;5030470;28;20033;-61
2023/08/29 01:33:57;;;;;;;11.68;5.93;;;;;;;13.17;100.00;101320.72;5027790;28;20040;-61
2023/08/29 01:36:26;;;;;;;8.85;5.40;;;;;;;13.19;100.00;101323.31;5027220;28;20387;-58
2023/08/29 01:38:51;;;;;;;;;;;;;;;13.20;100.00;101319.75;5028348;28;20384;-60
2023/08/29 01:41:17;;;;;;;10.50;5.80;;;;;;;13.17;100.00;101319.84;5027620;28;19924;-59
2023/08/29 01:43:42;;;;;;;8.02;5.43;;;;;;;13.15;100.00;101319.91;5045757;28;20374;-61
2023/08/29 01:46:07;;;;;;;8.13;5.80;;;;;;;13.10;100.00;101325.38;5047917;28;20409;-61
2023/08/29 01:48:33;;;;;;;8.88;5.50;;;;;;;13.08;100.00;101327.22;5045845;28;20031;-59
2023/08/29 01:50:59;;;;;;;11.93;5.78;;;;;;;13.08;100.00;101327.22;5046885;28;20053;-60
2023/08/29 01:53:24;;;;;;;8.23;5.80;;;;;;;13.08;100.00;101332.50;5046258;28;20032;-60
2023/08/29 01:55:50;;;;;;;8.75;5.30;;;;;;;13.06;100.00;101331.69;5028351;28;20025;-60
2023/08/29 01:58:16;;;;;;;9.07;5.72;;;;;;;13.02;100.00;101330.09;5026469;28;20026;-60
2023/08/29 02:00:42;;;;;;;9.60;5.55;;;;;;;12.99;100.00;101332.84;5027499;28;20082;-61
2023/08/29 02:03:08;;;;;;;7.80;6.05;;;;;;;13.01;100.00;101331.84;5025897;28;20026;-60
2023/08/29 02:05:33;;;;;;;9.23;5.70;;;;;;;13.00;100.00;101329.28;5027325;28;20118;-62
2023/08/29 02:07:58;;;;;;;9.75;6.38;;;;;;;12.98;100.00;101325.84;5047948;28;20464;-60
2023/08/29 02:10:24;;;;;;;10.07;6.05;;;;;;;12.98;100.00;101324.03;5047463;28;20028;-62
2023/08/29 02:12:49;;;;;;;8.70;6.20;;;;;;;12.98;100.00;101320.53;5048255;28;20116;-59
2023/08/29 02:15:15;;;;;;;10.75;6.95;;;;;;;12.94;100.00;101318.94;5048545;28;20029;-59
2023/08/29 02:17:40;;;;;;;8.77;6.60;;;;;;;12.89;100.00;101309.38;5043946;28;20411;-61
2023/08/29 02:20:06;;;;;;;7.85;6.43;;;;;;;12.87;100.00;101311.22;5034939;28;20036;-62
2023/08/29 02:22:32;;;;;;;8.65;6.65;;;;;;;12.93;100.00;101312.78;5046273;28;20139;-60
2023/08/29 02:25:00;;;;;;;8.90;6.70;;;;;;;12.95;100.00;101310.06;5051810;28;20032;-60
2023/08/29 02:27:25;;;;;;;12.80;6.93;;;;;;;12.93;100.00;101323.34;5033978;28;20036;-62
2023/08/29 02:29:51;;;;;;;10.32;6.63;;;;;;;12.92;100.00;101320.75;5031574;28;20108;-59
2023/08/29 02:32:17;;;;;;;8.60;6.80;;;;;;;12.95;100.00;101318.00;5030999;28;20060;-62
2023/08/29 02:34:43;;;;;;;11.88;8.05;;;;;;;12.96;100.00;101322.38;5030965;28;20029;-62
2023/08/29 02:37:08;;;;;;;15.73;9.38;;;;;;;12.91;100.00;101325.19;5031304;28;20037;-61
2023/08/29 02:39:34;;;;;;;14.27;8.63;;;;;;;12.89;100.00;101332.31;5031106;28;20059;-59
2023/08/29 02:41:59;;;;;;;10.68;7.55;;;;;;;12.86;100.00;101333.28;5031097;28;20082;-61
2023/08/29 02:44:25;;;;;;;13.32;8.77;;;;;;;12.87;100.00;101335.03;5031212;28;20663;-61
2023/08/29 02:46:50;;;;;;;12.38;8.52;;;;;;;12.89;100.00;101337.63;5031652;28;20025;-59
2023/08/29 02:49:15;;;;;;;13.02;8.93;;;;;;;12.87;100.00;101340.31;5030223;28;20076;-60
2023/08/29 02:51:41;;;;;;;12.25;8.38;;;;;;;12.80;100.00;101328.22;5030763;28;20057;-60
2023/08/29 02:54:06;;;;;;;12.52;7.65;;;;;;;12.80;100.00;101335.28;5030523;28;20101;-58
2023/08/29 02:56:32;;;;;;;11.18;8.77;;;;;;;12.85;100.00;101333.31;5037828;28;20033;-60
2023/08/29 02:58:57;;;;;;;15.32;9.15;;;;;;;12.87;100.00;101339.44;5051403;28;20025;-59
2023/08/29 03:01:22;;;;;;;12.52;9.20;;;;;;;12.87;100.00;101340.31;5050195;28;20045;-60
2023/08/29 03:03:48;;;;;;;14.73;8.98;;;;;;;12.88;100.00;101339.38;5049291;28;20096;-61
2023/08/29 03:06:13;;;;;;;10.88;8.63;;;;;;;12.84;100.00;101343.06;5050706;28;20029;-61
2023/08/29 03:08:39;;;;;;;13.55;9.80;;;;;;;12.83;100.00;101346.63;5041853;28;20587;-61
2023/08/29 03:11:04;;;;;;;14.65;8.68;;;;;;;12.82;100.00;101346.69;5033075;28;20036;-62
2023/08/29 03:13:30;;;;;;;14.57;8.65;;;;;;;12.82;100.00;101344.03;5049870;28;20491;-61
2023/08/29 03:15:57;;;;;;;16.10;9.27;;;;;;;12.85;100.00;101351.84;5050271;28;20119;-61
2023/08/29 03:18:23;;;;;;;17.23;9.05;;;;;;;12.89;100.00;101351.69;5049701;28;20544;-62
2023/08/29 03:20:48;;;;;;;12.48;8.85;;;;;;;12.94;100.00;101348.03;5050824;28;20063;-61
2023/08/29 03:23:14;;;;;;;14.32;9.85;;;;;;;12.98;100.00;101347.00;5045323;28;20037;-61
2023/08/29 03:25:39;;;;;;;14.38;9.55;;;;;;;12.96;100.00;101340.88;5030442;28;20014;-61
2023/08/29 03:28:05;;;;;;;13.20;8.52;;;;;;;13.00;100.00;101339.84;5029895;28;20025;-62
2023/08/29 03:30:30;;;;;;;14.52;8.73;;;;;;;12.97;100.00;101343.47;5030641;28;20105;-61
2023/08/29 03:32:56;;;;;;;12.38;8.13;;;;;;;12.98;100.00;101336.41;5047555;28;20025;-60
2023/08/29 03:35:21;;;;;;;11.05;7.97;;;;;;;13.02;100.00;101345.97;5049472;28;20033;-62
2023/08/29 03:37:46;;;;;;;13.15;8.57;;;;;;;13.07;100.00;101343.16;5050137;28;20029;-61
2023/08/29 03:40:12;;;;;;;13.30;8.65;;;;;;;13.13;100.00;101348.22;5050580;28;20431;-60
2023/08/29 03:42:38;;;;;;;14.75;8.90;;;;;;;13.19;100.00;101349.78;5049839;28;20036;-62
2023/08/29 03:45:04;;;;;;;16.25;9.40;;;;;;;13.27;100.00;101350.34;5030078;28;20036;-61
2023/08/29 03:47:32;;;;;;;14.68;8.45;;;;;;;13.33;100.00;101342.19;5029834;28;20025;-60
2023/08/29 03:49:57;;;;;;;17.00;8.80;;;;;;;13.40;100.00;101341.03;5029890;28;20025;-60
2023/08/29 03:52:26;;;;;;;13.98;8.00;;;;;;;13.46;100.00;101331.97;5030606;28;20399;-61
2023/08/29 03:54:57;;;;;;;;;;;;;;;13.54;100.00;101331.72;5031460;28;20607;-60
2023/08/29 03:57:23;;;;;;;13.10;8.63;;;;;;;13.63;100.00;101338.44;5047112;28;19923;-60
2023/08/29 03:59:48;;;;;;;16.25;8.75;;;;;;;13.70;100.00;101344.38;5033254;28;20388;-61
2023/08/29 04:02:14;;;;;;;14.35;7.93;;;;;;;13.76;100.00;101341.50;5028765;28;20184;-61
2023/08/29 04:04:39;;;;;;;11.38;8.27;;;;;;;13.75;100.00;101337.97;5028149;28;20025;-61
2023/08/29 04:07:05;;;;;;;12.70;7.65;;;;;;;13.81;100.00;101336.88;5030205;28;20029;-61
2023/08/29 04:09:30;;;;;;;14.25;8.15;;;;;;;13.83;100.00;101328.88;5029495;28;20431;-62
2023/08/29 04:11:56;;;;;;;11.13;7.75;;;;;;;13.92;100.00;101327.63;5044546;28;20036;-61
2023/08/29 04:14:21;;;;;;;12.98;8.73;;;;;;;13.95;100.00;101322.22;5050009;28;20037;-62
2023/08/29 04:16:48;;;;;;;17.20;8.38;;;;;;;13.98;100.00;101314.13;5048913;28;20021;-61
2023/08/29 04:19:14;;;;;;;13.95;7.50;;;;;;;14.01;100.00;101314.00;5048896;28;20064;-59
2023/08/29 04:21:40;;;;;;;14.38;7.35;;;;;;;14.00;100.00;101322.91;5048429;28;20529;-59
2023/08/29 04:24:06;;;;;;;15.07;7.95;;;;;;;13.99;100.00;101323.81;5038049;28;20021;-61
2023/08/29 04:26:31;;;;;;;9.75;7.75;;;;;;;13.99;100.00;101323.81;5046698;28;20024;-61
2023/08/29 04:28:56;;;;;;;11.88;6.57;;;;;;;13.95;100.00;101317.78;5048362;28;20108;-61
2023/08/29 04:31:22;;;;;;;9.88;7.20;;;;;;;13.96;100.00;101305.38;5049868;28;20029;-60
2023/08/29 04:33:47;;;;;;;9.68;6.22;;;;;;;13.84;100.00;101299.66;5049138;28;20086;-62
2023/08/29 04:36:18;;;;;;;9.75;6.93;;;;;;;13.75;100.00;101298.25;5048521;28;20519;-62
2023/08/29 04:38:46;;;;;;;10.25;6.88;;;;;;;13.72;100.00;101305.44;5049210;28;20052;-62
2023/08/29 04:41:12;;;;;;;12.23;7.28;;;;;;;13.68;100.00;101303.84;5048515;28;20035;-58
2023/08/29 04:43:38;;;;;;;13.43;6.65;;;;;;;13.66;100.00;101303.91;5031598;28;20041;-60
2023/08/29 04:46:04;;;;;;;11.02;7.13;;;;;;;13.60;100.00;101304.16;5032477;28;20419;-62
2023/08/29 04:48:29;;;;;;;11.07;7.45;;;;;;;13.56;100.00;101295.47;5034482;28;20017;-60
2023/08/29 04:50:55;;;;;;;9.07;7.00;;;;;;;13.55;100.00;101287.59;5031691;28;20033;-62
2023/08/29 04:53:21;;;;;;;11.82;7.65;;;;;;;13.51;100.00;101290.34;5048659;28;20029;-60
2023/08/29 04:55:46;;;;;;;13.23;7.45;;;;;;;13.49;100.00;101288.66;5048406;28;20023;-62
2023/08/29 04:58:11;;;;;;;9.95;6.93;;;;;;;13.46;100.00;101294.09;5046046;28;20331;-60
2023/08/29 05:00:37;;;;;;;13.77;6.75;;;;;;;13.43;100.00;101294.19;5029180;28;20032;-60
2023/08/29 05:03:04;;;;;;;9.55;6.90;;;;;;;13.43;100.00;101296.84;5028907;28;20120;-62
2023/08/29 05:05:30;;;;;;;12.63;7.38;;;;;;;13.45;100.00;101297.66;5027772;28;20029;-61
2023/08/29 05:07:55;;;;;;;9.70;6.95;;;;;;;13.45;100.00;101295.84;5028071;28;20030;-60
2023/08/29 05:10:20;;;;;;;12.70;6.85;;;;;;;13.44;100.00;101280.91;5027244;28;20033;-61
2023/08/29 05:12:46;;;;;;;14.02;7.15;;;;;;;13.46;100.00;101286.13;5041769;28;20120;-62
2023/08/29 05:15:11;;;;;;;12.27;6.78;;;;;;;13.46;100.00;101280.84;5029645;28;20033;-60
2023/08/29 05:17:36;;;;;;;9.93;7.20;;;;;;;13.44;100.00;101275.59;5026500;28;20030;-62
2023/08/29 05:20:03;;;;;;;10.18;7.03;;;;;;;13.43;100.00;101273.91;5042421;28;20031;-60
2023/08/29 05:22:28;;;;;;;11.00;7.15;;;;;;;13.51;100.00;101276.25;5046641;28;20264;-60
2023/08/29 05:24:53;;;;;;;10.18;6.07;;;;;;;13.61;100.00;101279.41;5046084;28;20475;-60
2023/08/29 05:27:19;;;;;;;10.13;7.30;;;;;;;13.72;100.00;101277.19;5030666;28;20036;-61
2023/08/29 05:29:44;;;;;;;9.88;6.72;;;;;;;13.79;100.00;101272.53;5044747;28;20017;-60
2023/08/29 05:32:09;;;;;;;10.15;6.43;;;;;;;13.85;100.00;101276.69;5045002;28;20067;-60
2023/08/29 05:34:35;;;;;;;9.23;6.38;;;;;;;13.92;100.00;101272.88;5046364;28;20029;-61
2023/08/29 05:37:00;;;;;;;8.68;6.18;;;;;;;13.94;100.00;101272.81;5045394;28;20118;-62
2023/08/29 05:39:26;;;;;;;10.38;6.07;;;;;;;13.96;100.00;101278.88;5029539;28;20598;-61
2023/08/29 05:41:51;;;;;;;11.27;7.32;;;;;;;13.98;100.00;101277.03;5027407;28;20510;-62
2023/08/29 05:44:16;;;;;;;11.20;7.28;;;;;;;14.01;100.00;101279.56;5026956;28;20049;-61
2023/08/29 05:46:42;;;;;;;11.43;7.50;;;;;;;13.99;100.00;101284.94;5027601;28;20032;-58
2023/08/29 05:49:07;;;;;;;11.35;6.95;;;;;;;13.96;100.00;101273.59;5032908;28;20017;-61
2023/08/29 05:51:33;;;;;;;14.57;7.50;;;;;;;13.96;100.00;101276.25;5046318;28;20068;-60
2023/08/29 05:53:59;;;;;;;12.57;7.07;;;;;;;13.98;100.00;101274.41;5047506;28;20577;-61
2023/08/29 05:56:24;;;;;;;13.27;6.60;;;;;;;13.97;100.00;101276.19;5046384;28;20402;-60
2023/08/29 05:58:50;;;;;;;12.95;6.85;;;;;;;14.00;100.00;101276.06;5030155;28;20033;-60
2023/08/29 06:01:15;;;;;;;11.50;6.93;;;;;;;14.03;100.00;101277.75;5040188;28;20045;-60
2023/08/29 06:03:41;;;;;;;8.23;6.70;;;;;;;14.08;100.00;101282.81;5044129;28;20021;-60
2023/08/29 06:06:07;;;;;;;13.68;6.93;;;;;;;14.06;100.00;101287.34;5046150;28;20079;-63
2023/08/29 06:08:35;;;;;;;17.33;7.13;;;;;;;14.12;100.00;101287.09;5046259;28;20059;-61
2023/08/29 06:11:03;;;;;;;10.20;6.28;;;;;;;14.19;100.00;101287.69;5032860;28;20030;-61
2023/08/29 06:13:29;;;;;;;10.38;7.38;;;;;;;14.20;100.00;101284.09;5041597;28;20063;-61
2023/08/29 06:15:54;;;;;;;11.10;6.57;;;;;;;14.24;100.00;101275.94;5044598;28;20309;-62
2023/08/29 06:18:20;;;;;;;8.50;6.50;;;;;;;14.27;100.00;101277.63;5045403;28;20028;-62
2023/08/29 06:20:45;;;;;;;13.02;6.47;;;;;;;14.33;100.00;101284.44;5047081;28;20037;-60
2023/08/29 06:23:10;;;;;;;10.15;7.63;;;;;;;14.37;100.00;101275.44;5029966;28;20040;-61
2023/08/29 06:25:36;;;;;;;10.13;6.70;;;;;;;14.44;100.00;101274.25;5027023;28;20057;-60
2023/08/29 06:28:01;;;;;;;11.05;6.68;;;;;;;14.50;100.00;101275.75;5026453;28;20067;-59
2023/08/29 06:30:27;;;;;;;13.85;6.72;;;;;;;14.54;100.00;101277.34;5027265;28;20046;-61
2023/08/29 06:32:52;;;;;;;14.82;7.82;;;;;;;14.62;100.00;101279.66;5026912;28;20584;-60
2023/08/29 06:35:18;;;;;;;11.68;7.20;;;;;;;14.71;100.00;101283.69;5029214;28;20038;-61
2023/08/29 06:37:43;;;;;;;13.00;7.72;;;;;;;14.77;100.00;101283.44;5046211;28;20040;-58
2023/08/29 06:40:10;;;;;;;10.85;7.05;;;;;;;14.85;100.00;101273.38;5045598;28;20029;-62
2023/08/29 06:42:35;;;;;;;12.73;7.82;;;;;;;14.91;100.00;101273.06;5041475;28;20053;-62
2023/08/29 06:45:01;;;;;;;13.70;7.05;;;;;;;15.00;100.00;101273.59;5029250;28;20034;-60
2023/08/29 06:47:26;;;;;;;13.57;6.53;;;;;;;15.08;100.00;101266.13;5025098;28;20029;-62
2023/08/29 06:49:55;;;;;;;11.10;6.63;;;;;;;15.16;100.00;101268.44;5025963;28;20037;-61
2023/08/29 06:52:21;;;;;;;10.90;6.72;;;;;;;15.24;100.00;101266.31;5028003;28;20044;-60
2023/08/29 06:54:46;;;;;;;14.60;6.93;;;;;;;15.33;100.00;101272.97;5026734;28;20452;-60
2023/08/29 06:57:12;;;;;;;18.15;6.88;;;;;;;15.41;100.00;101270.81;5037135;28;20029;-64
2023/08/29 06:59:37;;;;;;;10.27;6.50;;;;;;;15.51;100.00;101273.03;5026506;28;20033;-60
2023/08/29 07:02:03;;;;;;;8.65;5.82;;;;;;;15.62;100.00;101272.53;5029643;28;20050;-61
2023/08/29 07:04:28;;;;;;;9.65;5.80;;;;;;;15.76;100.00;101272.69;5037639;28;20099;-62
2023/08/29 07:06:53;;;;;;;9.00;5.30;;;;;;;15.89;100.00;101264.09;5045951;28;20036;-60
2023/08/29 07:09:19;;;;;;;9.35;5.18;;;;;;;15.98;100.00;101266.34;5034321;28;20071;-61
2023/08/29 07:11:44;;;;;;;6.82;4.25;;;;;;;16.17;100.00;101276.91;5046221;28;20021;-60
2023/08/29 07:14:09;;;;;;;11.30;5.05;;;;;;;16.28;100.00;101275.50;5047602;28;20470;-61
2023/08/29 07:16:35;;;;;;;4.65;4.13;;;;;;;16.41;100.00;101268.59;5034870;28;20068;-61
2023/08/29 07:19:00;;;;;;;5.65;4.00;;;;;;;16.54;100.00;101274.16;5041588;28;20029;-59
2023/08/29 07:21:26;;;;;;;5.93;3.63;;;;;;;16.60;100.00;101272.09;5044333;28;20033;-60
2023/08/29 07:23:53;;;;;;;3.55;3.22;;;;;;;16.63;100.00;101271.94;5050250;28;20025;-57
2023/08/29 07:26:19;;;;;;;9.35;3.38;;;;;;;16.71;100.00;101274.22;5048789;28;20067;-62
2023/08/29 07:28:44;;;;;;;6.57;3.70;;;;;;;16.71;100.00;101269.75;5045050;28;20022;-59
2023/08/29 07:31:10;;;;;;;5.82;3.58;;;;;;;16.76;100.00;101277.47;5036567;28;20071;-61
2023/08/29 07:33:36;;;;;;;8.52;3.50;;;;;;;16.83;100.00;101270.03;5041810;28;20052;-62
2023/08/29 07:36:02;;;;;;;6.43;3.47;;;;;;;16.88;100.00;101276.81;5048206;28;20032;-57
2023/08/29 07:38:28;;;;;;;8.30;3.63;;;;;;;16.97;100.00;101269.28;5048187;28;20017;-61
2023/08/29 07:40:53;;;;;;;6.50;3.50;;;;;;;17.11;100.00;101274.75;5043382;28;20055;-61
2023/08/29 07:43:18;;;;;;;6.18;3.58;;;;;;;17.20;100.00;101269.84;5046515;28;20095;-59
2023/08/29 07:45:45;;;;;;;10.73;3.63;;;;;;;17.37;100.00;101269.78;5046328;28;20479;-61
2023/08/29 07:48:10;;;;;;;11.95;4.00;;;;;;;17.47;100.00;101263.94;5030564;28;20084;-60
2023/08/29 07:50:36;;;;;;;4.82;3.17;;;;;;;17.65;100.00;101262.91;5027755;28;20029;-61
2023/08/29 07:53:01;;;;;;;6.28;3.58;;;;;;;17.88;100.00;101270.50;5043209;28;20025;-60
2023/08/29 07:55:27;;;;;;;5.47;3.67;;;;;;;18.08;100.00;101269.34;5030030;28;20156;-61
2023/08/29 07:57:52;;;;;;;6.45;3.78;;;;;;;18.29;100.00;101269.91;5027900;28;20144;-60
2023/08/29 08:00:18;;;;;;;6.28;3.28;;;;;;;18.47;100.00;101263.53;5042685;28;20032;-60
2023/08/29 08:02:43;;;;;;;9.48;3.40;;;;;;;18.61;100.00;101258.22;5041834;28;20375;-61
2023/08/29 08:05:10;;;;;;;6.80;3.78;;;;;;;18.71;100.00;101263.84;5045765;28;20021;-60
2023/08/29 08:07:36;;;;;;;11.00;4.20;;;;;;;18.80;100.00;101259.75;5043256;28;20025;-62
2023/08/29 08:10:04;;;;;;;7.10;3.70;;;;;;;18.75;100.00;101261.84;5047704;28;20074;-63
2023/08/29 08:12:30;;;;;;;8.37;4.17;;;;;;;18.88;100.00;101261.94;5045828;28;20048;-61
2023/08/29 08:14:55;;;;;;;6.28;3.38;;;;;;;19.01;100.00;101262.88;5043034;28;20024;-62
2023/08/29 08:17:20;;;;;;;5.75;3.60;;;;;;;19.03;100.00;101260.97;5029222;28;20472;-60
2023/08/29 08:19:47;;;;;;;7.90;4.05;;;;;;;19.27;100.00;101264.88;5027262;28;20104;-59
2023/08/29 08:22:12;;;;;;;6.07;3.80;;;;;;;19.55;100.00;101253.25;5028830;28;20057;-61
2023/08/29 08:24:38;;;;;;;8.95;4.30;;;;;;;19.82;100.00;101254.19;5047455;28;20112;-59
2023/08/29 08:27:05;;;;;;;4.45;4.03;;;;;;;20.00;100.00;101253.91;5047412;28;20731;-59
2023/08/29 08:29:31;;;;;;;4.70;3.80;;;;;;;19.97;100.00;101254.13;5039190;28;20079;-61
2023/08/29 08:31:56;;;;;;;5.70;3.70;;;;;;;20.23;100.00;101259.56;5037528;28;20063;-61
2023/08/29 08:34:21;;;;;;;4.78;3.75;;;;;;;20.42;100.00;101257.34;5046444;28;20047;-61
2023/08/29 08:36:47;;;;;;;4.57;2.90;;;;;;;20.39;100.00;101260.22;5039670;28;20036;-57
2023/08/29 08:39:12;;;;;;;5.72;3.20;;;;;;;20.32;100.00;101259.78;5028663;28;20072;-62
2023/08/29 08:41:38;;;;;;;5.78;3.40;;;;;;;20.30;100.00;101258.16;5027801;28;20036;-61
2023/08/29 08:44:05;;;;;;;4.00;3.30;;;;;;;20.10;100.00;101248.84;5029106;28;20025;-57
2023/08/29 08:46:30;;;;;;;6.25;3.42;;;;;;;20.18;100.00;101250.03;5042899;28;20040;-60
2023/08/29 08:48:56;;;;;;;5.13;3.20;;;;;;;20.08;100.00;101248.94;5031288;28;20033;-58
2023/08/29 08:51:22;;;;;;;3.15;2.85;;;;;;;19.77;100.00;101246.47;5033829;28;20381;-61
2023/08/29 08:53:49;;;;;;;2.75;2.42;;;;;;;19.86;100.00;101244.16;5046131;28;20013;-60
2023/08/29 08:56:15;;;;;;;4.22;2.25;;;;;;;19.96;100.00;101245.25;5036913;28;20036;-61
2023/08/29 08:58:40;;;;;;;4.82;2.13;;;;;;;19.94;100.00;101245.38;5041474;28;20100;-62
2023/08/29 09:01:05;;;;;;;4.43;2.50;;;;;;;19.74;100.00;101249.34;5045233;28;20048;-58
2023/08/29 09:03:31;;;;;;;2.10;1.90;;;;;;;19.72;100.00;101245.09;5043539;28;20925;-58
2023/08/29 09:05:56;;;;;;;3.78;1.75;;;;;;;19.73;100.00;101244.09;5032666;28;20029;-62
2023/08/29 09:08:22;;;;;;;5.18;1.67;;;;;;;19.72;100.00;101237.94;5027754;28;20026;-61
2023/08/29 09:10:51;;;;;;;2.47;1.70;;;;;;;19.74;100.00;101237.81;5029597;28;20037;-66
2023/08/29 09:13:16;;;;;;;4.30;1.88;;;;;;;19.81;100.00;101239.13;5027326;28;20056;-65
2023/08/29 09:16:28;;;;;;;2.00;1.45;;;;;;;20.06;100.00;101237.50;5060626;28;20398;-63
2023/08/29 09:18:53;;;;;;;3.22;1.65;;;;;;;20.19;100.00;101235.69;5039117;28;20129;-63
2023/08/29 09:21:21;;;;;;;2.65;2.10;;;;;;;20.29;100.00;101235.06;5039134;28;20027;-63
2023/08/29 09:23:46;;;;;;;1.48;1.38;;;;;;;20.33;100.00;101233.88;5044509;28;20029;-64
2023/08/29 09:26:12;;;;;;;1.65;1.30;;;;;;;20.48;100.00;101236.44;5064075;28;20063;-63
2023/08/29 09:28:38;;;;;;;4.18;1.92;;;;;;;20.49;100.00;101235.47;5062941;28;20025;-62
2023/08/29 09:31:08;;;;;;;2.35;1.90;;;;;;;20.48;100.00;101236.44;5058703;28;20463;-63
2023/08/29 09:33:35;;;;;;;2.45;2.05;;;;;;;20.54;100.00;101230.66;5061486;28;20025;-62
2023/08/29 09:36:01;;;;;;;5.75;2.15;;;;;;;20.72;100.00;101225.84;5043323;28;20033;-63
2023/08/29 09:38:34;;;;;;;3.00;1.95;;;;;;;20.84;100.00;101219.56;5047986;28;20024;-63
2023/08/29 09:41:00;;;;;;;3.72;2.20;;;;;;;21.03;100.00;101217.44;5063352;28;20033;-64
2023/08/29 09:43:27;;;;;;;3.08;1.65;;;;;;;21.21;96.02;101221.47;5060130;28;20035;-62
2023/08/29 09:45:54;;;;;;;3.50;1.50;;;;;;;21.26;88.51;101223.81;5062139;28;20487;-64
2023/08/29 09:48:20;;;;;;;2.15;1.30;;;;;;;21.23;92.43;101217.81;5061884;28;20025;-63
2023/08/29 09:50:46;;;;;;;2.30;1.60;;;;;;;21.32;89.87;101211.78;5055473;28;20372;-62
2023/08/29 09:53:18;;;;;;;3.25;1.80;;;;;;;21.59;91.06;101208.00;5062726;28;20387;-62
2023/08/29 09:55:50;;;;;;;3.97;2.20;;;;;;;21.98;87.79;101212.28;5060089;28;20028;-62
2023/08/29 09:58:17;;;;;;;3.75;1.90;;;;;;;22.01;85.40;101212.06;5059897;28;20024;-63
2023/08/29 10:00:43;;;;;;;4.07;2.20;;;;;;;22.10;83.25;101214.03;5061624;28;20024;-62
2023/08/29 10:03:10;;;;;;;2.30;2.10;;;;;;;22.26;86.27;101202.09;5058189;28;20549;-62
2023/08/29 10:05:37;;;;;;;3.55;2.60;;;;;;;22.20;88.70;101207.00;5062651;28;20025;-63
2023/08/29 10:08:27;;;;;;;5.32;2.92;;;;;;;22.29;86.95;101205.41;5060324;28;20387;-62
2023/08/29 10:10:55;;;;;;;2.88;2.40;;;;;;;22.25;91.05;101205.75;5057456;28;20034;-62
2023/08/29 10:13:21;;;;;;;5.90;3.08;;;;;;;22.36;94.97;101199.56;5063286;28;20051;-63
2023/08/29 10:15:47;;;;;;;5.88;2.80;;;;;;;22.65;95.16;101208.03;5060845;28;20527;-63
2023/08/29 10:18:13;;;;;;;4.90;2.67;;;;;;;22.90;88.40;101197.16;5056962;28;20040;-62
2023/08/29 10:20:43;;;;;;;7.15;3.45;;;;;;;22.91;86.71;101199.69;5057984;28;20021;-63
2023/08/29 10:23:09;;;;;;;2.80;2.60;;;;;;;23.25;83.57;101200.59;5062715;28;20533;-61
2023/08/29 10:25:36;;;;;;;3.58;2.40;;;;;;;23.42;81.28;101192.00;5061507;28;20025;-63
2023/08/29 10:28:01;;;;;;;4.45;2.00;;;;;;;23.58;82.58;101186.22;5045665;28;20040;-62
2023/08/29 10:30:28;;;;;;;3.88;2.28;;;;;;;23.82;82.42;101186.94;5047828;28;20029;-61
2023/08/29 10:32:55;;;;;;;3.58;1.90;;;;;;;23.65;80.60;101174.91;5033025;28;20035;-62
2023/08/29 10:35:22;;;;;;;6.05;2.30;;;;;;;23.63;82.98;101180.41;5043673;28;20053;-63
2023/08/29 10:37:52;;;;;;;4.68;1.77;;;;;;;23.37;80.32;101175.41;5049681;28;20033;-61
2023/08/29 10:40:18;;;;;;;5.13;2.20;;;;;;;22.92;82.22;101179.91;5036991;28;20025;-63
2023/08/29 10:43:00;;;;;;;3.22;2.10;;;;;;;23.12;82.04;101174.75;5045154;28;20094;-62
2023/08/29 10:45:54;;;;;;;4.03;2.53;;;;;;;22.91;84.63;101180.88;5030045;28;20032;-61
2023/08/29 10:48:46;;;;;;;4.68;2.30;;;;;;;23.07;88.51;101176.94;5012681;28;20115;-62
2023/08/29 10:51:16;;;;;;;2.45;1.95;;;;;;;23.52;82.22;101172.41;5019355;28;20045;-63
2023/08/29 10:53:48;;;;;;;4.28;2.10;;;;;;;23.81;83.77;101175.31;5025828;28;20029;-62
2023/08/29 10:56:15;;;;;;;3.85;2.20;;;;;;;24.06;75.42;101167.84;5035458;28;20044;-63
2023/08/29 10:58:41;;;;;;;3.00;2.42;;;;;;;23.68;77.24;101162.06;5048870;28;20555;-63
2023/08/29 11:01:33;;;;;;;5.38;2.97;;;;;;;23.18;80.69;101162.63;5048860;28;20321;-62
2023/08/29 11:04:00;;;;;;;2.83;2.20;;;;;;;23.15;82.28;101162.88;5045806;28;20029;-60
2023/08/29 11:06:50;;;;;;;3.88;1.88;;;;;;;22.90;76.96;101171.09;5047815;28;20029;-62
2023/08/29 11:09:20;;;;;;;3.60;1.85;;;;;;;22.63;76.18;101160.78;5041377;28;20473;-62
2023/08/29 11:12:12;;;;;;;3.00;1.83;;;;;;;22.49;78.42;101157.34;5048064;28;20048;-63